Elbow Lake, MN (56531)

3:17 PM CDT on October 01, 2014 (GMT -0500)
Elbow Lake | Change Station
CLOSE
Current Station
Airport
Location: Elbow Lake,
Elevation: 1204 ft
Nearby Weather Stations

Elev 1204 ft 45.99 °N, 95.99 °W | Updated -962 second ago

Overcast
Overcast
55 °F
Feels Like 55 °F
N
21
Wind Variable Wind from SE
Gusts 30 mph

Today
High -- | Low -- °F
--% Chance of Precip.
Yesterday
High -- | Low -- °F
Precip. -- in
7:22 AM 7:03 PM
Waxing Crescent, 50% visible
Pressure 29.77 in
Visibility 10.0 miles
Clouds Scattered Clouds 7000 ft
Overcast 10000 ft
Dew Point 46 °F
Humidity 74%
Rainfall 0.00 in
Snow Depth Not available.
UV 1 out of 12
Pollen 2.90 out of 12
Air Quality Not available.
Flu Activity Not available.
METAR KY63 302034Z AUTO 13018G26KT 10SM SCT070 OVC100 13/08 A2977 RMK AO2 T01260080

More Conditions Fewer Conditions

Pressure 29.77 in
Visibility 10.0 miles
Clouds Scattered Clouds 7000 ft
Overcast 10000 ft
Dew Point 46 °F
Humidity 74%
Rainfall 0.00 in
Snow Depth Not available.
UV 1 out of 12
Pollen 2.90 out of 12
Air Quality Not available.
Flu Activity Not available.
METAR KY63 302034Z AUTO 13018G26KT 10SM SCT070 OVC100 13/08 A2977 RMK AO2 T01260080

More Conditions Fewer Conditions

10-Day Weather Forecast

Almanac

Astronomy

Oct. 01, 2014 Rise Set
Actual Time 7:22 AM CDT 7:03 PM CDT
Civil Twilight 6:52 AM CDT 7:33 PM CDT
Nautical Twilight 6:17 AM CDT 8:08 PM CDT
Astronomical Twilight 5:42 AM CDT 8:43 PM CDT
Moon 2:37 PM CDT No Moon Set
Length of Visible Light 12h 41m
Length of Day
11h 41m
Tomorrow will be 3m 12s shorter.
Waxing Crescent, 50% of the Moon is Illuminated
Today
Waxing Crescent
Oct 8
Full
Oct 15
Last Quarter
Oct 23
New
Oct 30
First Quarter

Today's Extremes

State Highs State Lows

Community

WunderPhotos

Upload Photos

1,758,022 photos uploaded!

WunderBlogs® & News

By Dr. Jeff Masters
Director of Meteorology, Weather Underground
By Kari Strenfel
Meteorologist, Weather Underground
By Christopher C. Burt
Weather Historian, Weather Underground
October 1, 2014
October 1, 2014
October 1, 2014

Nearby

Snow Depth

Station Depth Elevation
No new snow has been reported.

Earthquake Activity

City Distance Mag. Time & Date
No recent earthquake activity has been reported nearby.
Minimum magnitude displayed is 2.5.

Coastal Water Temperatures

Place Temperature
No Stations Reporting

Nearby Weather Stations